createdAt,value
2019-05-19T12:54:58.577Z,3.13
2019-05-19T12:59:03.116Z,3.15
2019-05-19T13:03:09.866Z,3.18
2019-05-19T13:07:12.796Z,3.22
2019-05-19T13:11:17.340Z,3.22
2019-05-19T13:15:21.920Z,3.27
2019-05-19T13:19:26.420Z,3.32
2019-05-19T13:23:33.191Z,3.33
2019-05-19T13:27:38.909Z,3.29
2019-05-19T13:31:42.820Z,3.38
2019-05-19T13:35:57.617Z,3.38
2019-05-19T13:39:58.892Z,3.37
2019-05-19T13:44:03.137Z,3.33
2019-05-19T13:48:10.419Z,3.33
2019-05-19T13:52:12.731Z,3.34
2019-05-19T13:56:16.456Z,3.34
2019-05-19T14:00:21.199Z,3.33
2019-05-19T14:04:25.917Z,3.33
2019-05-19T14:08:35.465Z,3.33
2019-05-19T14:12:37.943Z,3.35
2019-05-19T14:16:42.199Z,3.36
2019-05-19T14:20:50.597Z,3.36
2019-05-19T14:25:01.633Z,3.37
2019-05-19T14:32:50.124Z,3.47
2019-05-19T14:37:01.276Z,3.43
2019-05-19T14:43:02.856Z,3.39
2019-05-19T14:47:01.090Z,3.45
2019-05-19T14:51:05.590Z,3.47
2019-05-19T14:55:16.871Z,3.46
2019-05-19T14:59:24.205Z,3.47
2019-05-19T15:03:27.560Z,3.47
2019-05-19T15:07:31.945Z,3.48
2019-05-19T15:11:43.284Z,3.47
2019-05-19T15:15:52.884Z,3.48
2019-05-19T15:20:01.779Z,3.49
2019-05-19T15:24:07.201Z,3.44
2019-05-19T15:28:13.421Z,3.45
2019-05-19T15:32:16.933Z,3.45
2019-05-19T15:36:24.620Z,3.45
2019-05-19T15:40:56.380Z,3.45
2019-05-19T15:45:04.438Z,3.43
2019-05-19T15:49:12.069Z,3.45
2019-05-19T15:53:15.064Z,3.45
2019-05-19T15:57:19.250Z,3.44
2019-05-19T16:01:31.028Z,3.45
2019-05-19T16:05:40.407Z,3.45
2019-05-19T16:09:53.076Z,3.44
2019-05-19T16:17:40.301Z,3.45
2019-05-19T16:21:43.059Z,3.45
2019-05-19T16:27:41.896Z,3.46
2019-05-19T16:31:40.084Z,3.45
2019-05-19T16:35:51.052Z,3.44
2019-05-19T16:39:54.751Z,3.44
2019-05-19T16:43:58.415Z,3.45
2019-05-19T16:48:17.085Z,3.45
2019-05-19T16:52:30.313Z,3.45
2019-05-19T16:58:29.167Z,3.44
2019-05-19T17:03:44.555Z,3.45
2019-05-19T17:07:50.298Z,3.44
2019-05-19T17:11:55.463Z,3.44
2019-05-19T17:19:51.735Z,3.44
2019-05-19T17:23:52.661Z,3.44
2019-05-19T17:28:03.763Z,3.44
2019-05-19T17:32:06.414Z,3.45
2019-05-19T17:36:10.248Z,3.44
2019-05-19T17:40:21.255Z,3.44
2019-05-19T17:44:26.660Z,3.45
2019-05-19T17:48:33.167Z,3.44
2019-05-19T17:52:36.089Z,3.45
2019-05-19T17:58:35.715Z,3.44
2019-05-19T18:02:44.275Z,3.43
2019-05-19T18:06:52.560Z,3.44
2019-05-19T18:10:57.984Z,3.43
2019-05-19T18:15:03.213Z,3.44
2019-05-19T18:19:06.864Z,3.44
2019-05-19T18:23:18.139Z,3.43
2019-05-19T18:27:27.276Z,3.44
2019-05-19T18:31:32.563Z,3.43
2019-05-19T18:35:35.447Z,3.44
2019-05-19T18:39:46.611Z,3.43
2019-05-19T18:43:59.012Z,3.44
2019-05-19T18:48:03.856Z,3.43
2019-05-19T18:52:10.340Z,3.43
2019-05-19T18:56:13.343Z,3.43
2019-05-19T19:00:17.598Z,3.44
2019-05-19T19:05:19.771Z,3.42
2019-05-19T19:09:34.239Z,3.43
2019-05-19T19:13:36.306Z,3.43
2019-05-19T19:19:29.308Z,3.42
2019-05-19T19:24:30.570Z,3.42
2019-05-19T19:28:58.440Z,3.43
2019-05-19T19:32:57.440Z,3.42
2019-05-19T19:38:05.867Z,3.42
2019-05-19T19:42:14.208Z,3.42
2019-05-19T19:46:15.962Z,3.42
2019-05-19T19:50:27.216Z,3.42
2019-05-19T19:54:32.741Z,3.42
2019-05-19T19:58:35.766Z,3.41
2019-05-19T20:02:39.773Z,3.41
2019-05-19T20:06:43.716Z,3.42
2019-05-19T20:11:47.011Z,3.41
2019-05-19T20:15:53.012Z,3.41
2019-05-19T20:20:03.345Z,3.41
2019-05-19T20:24:05.200Z,3.41
2019-05-19T20:28:09.351Z,3.41
2019-05-19T20:32:41.905Z,3.42
2019-05-19T20:37:39.367Z,3.41
2019-05-19T20:41:45.395Z,3.40
2019-05-19T20:45:47.002Z,3.40
2019-05-19T20:49:59.842Z,3.40
2019-05-19T20:54:11.951Z,3.41
2019-05-19T20:58:16.836Z,3.40
2019-05-19T21:02:20.204Z,3.40
2019-05-19T21:06:31.739Z,3.40
2019-05-19T21:10:54.958Z,3.39
2019-05-19T21:14:58.107Z,3.40
2019-05-19T21:19:02.446Z,3.39
2019-05-19T21:23:14.711Z,3.39
2019-05-19T21:27:18.785Z,3.39
2019-05-19T21:31:22.248Z,3.39
2019-05-19T21:37:21.292Z,3.39
2019-05-19T21:47:09.067Z,3.38
2019-05-19T21:51:04.204Z,3.38
2019-05-19T21:55:07.522Z,3.37
2019-05-19T21:59:15.039Z,3.38
2019-05-19T22:03:17.783Z,3.38
2019-05-19T22:17:13.327Z,3.39
2019-05-19T22:36:55.043Z,3.37
2019-05-19T22:42:49.407Z,3.38
2019-05-19T22:54:37.971Z,3.36
2019-05-19T22:58:32.837Z,3.37
2019-05-19T23:02:36.063Z,3.37
2019-05-19T23:10:32.424Z,3.37
2019-05-19T23:24:19.720Z,3.37
2019-05-19T23:28:14.419Z,3.36
2019-05-19T23:32:17.603Z,3.35
2019-05-19T23:40:14.085Z,3.36
2019-05-19T23:49:59.938Z,3.36
2019-05-19T23:54:04.821Z,3.35
2019-05-19T23:58:05.995Z,3.35
